createdAt,value
2023-05-08T00:00:13.894Z,38.9707
2023-05-08T00:00:43.574Z,39.66602
2023-05-08T00:01:13.570Z,39.07617
2023-05-08T00:01:43.575Z,39.02832
2023-05-08T00:02:13.620Z,39.06934
2023-05-08T00:02:43.658Z,39.17285
2023-05-08T00:03:13.651Z,39.01855
2023-05-08T00:03:43.751Z,39.23145
2023-05-08T00:04:13.731Z,38.86621
2023-05-08T00:04:43.624Z,39.15625
2023-05-08T00:05:13.567Z,39.63672
2023-05-08T00:05:43.585Z,39.67871
2023-05-08T00:06:13.575Z,39.65723
2023-05-08T00:06:43.571Z,39.83203
2023-05-08T00:07:13.576Z,40.11133
2023-05-08T00:07:43.586Z,39.72461
2023-05-08T00:08:13.592Z,39.0498
2023-05-08T00:08:43.577Z,40.86328
2023-05-08T00:09:13.599Z,40.25488
2023-05-08T00:09:43.571Z,39.7627
2023-05-08T00:10:13.773Z,40.30957
2023-05-08T00:10:43.624Z,39.76563
2023-05-08T00:11:13.581Z,39.77832
2023-05-08T00:11:43.608Z,39.5166
2023-05-08T00:12:13.643Z,39.99902
2023-05-08T00:12:43.636Z,40
2023-05-08T00:13:13.640Z,40.91309
2023-05-08T00:13:43.603Z,40.20703
2023-05-08T00:14:13.604Z,39.90723
2023-05-08T00:14:43.590Z,41.82813
2023-05-08T00:15:13.606Z,40.73438
2023-05-08T00:15:43.591Z,41.26855
2023-05-08T00:16:13.636Z,39.72168
2023-05-08T00:16:43.648Z,39.50391
2023-05-08T00:17:13.590Z,39.49902
2023-05-08T00:17:43.672Z,39.56445
2023-05-08T00:18:13.592Z,39.86426
2023-05-08T00:18:43.593Z,39.29688
2023-05-08T00:19:13.573Z,39.41797
2023-05-08T00:19:43.583Z,40.32129
2023-05-08T00:20:13.872Z,40.1084
2023-05-08T00:20:43.631Z,40.69629
2023-05-08T00:21:13.625Z,39.58691
2023-05-08T00:21:43.601Z,39.53223
2023-05-08T00:22:13.588Z,39.81055
2023-05-08T00:22:43.587Z,39.28613
2023-05-08T00:23:13.580Z,40.40234
2023-05-08T00:23:43.583Z,39.52539
2023-05-08T00:24:13.596Z,39.81445
2023-05-08T00:24:43.636Z,40.12695
2023-05-08T00:25:13.650Z,40.15039
2023-05-08T00:25:43.607Z,40.25977
2023-05-08T00:26:13.620Z,39.82031
2023-05-08T00:26:43.627Z,40.21875
2023-05-08T00:27:13.625Z,40.31641
2023-05-08T00:27:43.584Z,41.00293
2023-05-08T00:28:13.623Z,40.62891
2023-05-08T00:28:43.590Z,40.55371
2023-05-08T00:29:13.597Z,40.5
2023-05-08T00:29:43.600Z,40.61621
2023-05-08T00:30:13.771Z,39.10352
2023-05-08T00:30:43.599Z,40.14453
2023-05-08T00:31:13.597Z,40.24121
2023-05-08T00:31:43.614Z,40.65918
2023-05-08T00:32:13.615Z,41.21191
2023-05-08T00:32:43.614Z,40.75977
2023-05-08T00:33:13.651Z,40.92969
2023-05-08T00:33:43.601Z,41.32715
2023-05-08T00:34:13.575Z,40.63086
2023-05-08T00:34:43.573Z,40.46875
2023-05-08T00:35:13.576Z,40.44531
2023-05-08T00:35:43.573Z,41.58203
2023-05-08T00:36:13.573Z,40.8418
2023-05-08T00:36:43.602Z,40.12109
2023-05-08T00:37:13.582Z,41.21387
2023-05-08T00:37:43.596Z,40.74316
2023-05-08T00:38:13.587Z,41.44141
2023-05-08T00:38:43.627Z,41.66992
2023-05-08T00:39:13.577Z,41.61621
2023-05-08T00:39:43.578Z,41.24121
2023-05-08T00:40:13.742Z,42.20508
2023-05-08T00:40:43.577Z,42.77344
2023-05-08T00:41:13.582Z,41.74121
2023-05-08T00:41:43.579Z,42.00781
2023-05-08T00:42:13.577Z,42.76855
2023-05-08T00:42:43.585Z,41.31055
2023-05-08T00:43:13.572Z,41.26563
2023-05-08T00:43:43.578Z,40.29688
2023-05-08T00:44:13.591Z,40.28223
2023-05-08T00:44:43.587Z,40.52441
2023-05-08T00:45:13.595Z,40.44531
2023-05-08T00:45:43.575Z,40.47559
2023-05-08T00:46:13.603Z,40.14258
2023-05-08T00:46:43.670Z,40.25977
2023-05-08T00:47:13.573Z,40.43066
2023-05-08T00:47:43.638Z,40.38867
2023-05-08T00:48:13.579Z,40.32715
2023-05-08T00:48:43.585Z,40.24512
2023-05-08T00:49:13.574Z,39.82813
2023-05-08T00:49:43.575Z,38.78125
2023-05-08T00:50:13.854Z,40.05957
2023-05-08T00:50:43.586Z,40.21191
2023-05-08T00:51:13.575Z,40.60156
2023-05-08T00:51:43.575Z,40.24121
2023-05-08T00:52:13.593Z,40.5127
2023-05-08T00:52:43.600Z,40.87988
2023-05-08T00:53:13.587Z,40.25781
2023-05-08T00:53:43.586Z,40.2998
2023-05-08T00:54:13.602Z,39.99902
2023-05-08T00:54:43.581Z,40.30859
2023-05-08T00:55:13.582Z,39.64258
2023-05-08T00:55:43.582Z,39.99414
2023-05-08T00:56:13.604Z,39.66113
2023-05-08T00:56:43.575Z,39.49805
2023-05-08T00:57:13.576Z,39.5293
2023-05-08T00:57:43.588Z,40.24707
2023-05-08T00:58:13.581Z,40.22656
2023-05-08T00:58:43.577Z,39.53027
2023-05-08T00:59:13.583Z,39.56152
2023-05-08T00:59:43.578Z,39.86426
2023-05-08T01:00:13.714Z,39.82129
2023-05-08T01:00:43.574Z,39.85352
2023-05-08T01:01:13.598Z,39.40234
2023-05-08T01:01:43.632Z,39.83984
2023-05-08T01:02:13.644Z,39.81836
2023-05-08T01:02:43.651Z,39.89551
2023-05-08T01:03:13.650Z,40.46289
2023-05-08T01:03:43.764Z,40.1748
2023-05-08T01:04:13.581Z,39.73535
2023-05-08T01:04:43.576Z,39.39355
2023-05-08T01:05:13.578Z,39.65234
2023-05-08T01:05:43.577Z,39.59863
2023-05-08T01:06:13.577Z,39.55469
2023-05-08T01:06:43.580Z,39.86816
2023-05-08T01:07:13.585Z,39.96875
2023-05-08T01:07:43.579Z,40.125
2023-05-08T01:08:13.580Z,39.70898
2023-05-08T01:08:43.584Z,39.51465
2023-05-08T01:09:13.579Z,39.22656
2023-05-08T01:09:43.581Z,39.52539
2023-05-08T01:10:13.920Z,39.25684
2023-05-08T01:10:43.582Z,39.38477
2023-05-08T01:11:13.579Z,39.45996
2023-05-08T01:11:43.581Z,39.66602
2023-05-08T01:12:13.578Z,40.59277
2023-05-08T01:12:43.616Z,39.58398
2023-05-08T01:13:13.612Z,40.12988
2023-05-08T01:13:43.588Z,40.44043
2023-05-08T01:14:13.587Z,40.06152
2023-05-08T01:14:43.583Z,40.07813
2023-05-08T01:15:13.582Z,40.27051
2023-05-08T01:15:43.601Z,40.33105
2023-05-08T01:16:13.651Z,39.70605
2023-05-08T01:16:43.580Z,40.13672
2023-05-08T01:17:13.579Z,40.0625
2023-05-08T01:17:43.604Z,39.50586
2023-05-08T01:18:13.591Z,39.80762
2023-05-08T01:18:43.581Z,39.61816
2023-05-08T01:19:13.582Z,39.27832
2023-05-08T01:19:43.581Z,39.70117
2023-05-08T01:20:13.945Z,39.73828
2023-05-08T01:20:43.584Z,39.56934
2023-05-08T01:21:13.584Z,39.30371
2023-05-08T01:21:43.590Z,39.5498
2023-05-08T01:22:13.589Z,39.17188
2023-05-08T01:22:43.585Z,39.58008
2023-05-08T01:23:13.589Z,39.46191
2023-05-08T01:23:43.610Z,39.22461
2023-05-08T01:24:13.593Z,39.08496
2023-05-08T01:24:43.613Z,39.2666
2023-05-08T01:25:13.607Z,39.43848
2023-05-08T01:25:43.582Z,39.90039
2023-05-08T01:26:13.583Z,39.52637
2023-05-08T01:26:43.595Z,39.31445
2023-05-08T01:27:13.592Z,39.20801
2023-05-08T01:27:43.593Z,39.00781
2023-05-08T01:28:13.589Z,39.4082
2023-05-08T01:28:43.581Z,39.7334
2023-05-08T01:29:13.584Z,39.14648
2023-05-08T01:29:43.594Z,39.5918
2023-05-08T01:30:13.739Z,39.30176
2023-05-08T01:30:43.583Z,38.71875
2023-05-08T01:31:13.587Z,39.0625
2023-05-08T01:31:43.591Z,39.27832
2023-05-08T01:32:13.585Z,39.3457
2023-05-08T01:32:43.721Z,38.94141
2023-05-08T01:33:13.693Z,39.27344
2023-05-08T01:33:43.615Z,39.13184
2023-05-08T01:34:13.586Z,39.2334
2023-05-08T01:34:43.589Z,39.08008
2023-05-08T01:35:13.584Z,39.14355
2023-05-08T01:35:43.588Z,39.04688
2023-05-08T01:36:13.584Z,39.20605
2023-05-08T01:36:43.585Z,38.89844
2023-05-08T01:37:13.588Z,38.83008
2023-05-08T01:37:43.583Z,38.4043
2023-05-08T01:38:13.588Z,38.86621
2023-05-08T01:38:43.586Z,38.24316
2023-05-08T01:39:13.593Z,39.01855
2023-05-08T01:39:43.599Z,39.26367
2023-05-08T01:40:13.830Z,39.31641
2023-05-08T01:40:43.585Z,39.27148
2023-05-08T01:41:13.588Z,38.87891
2023-05-08T01:41:43.586Z,39.375
2023-05-08T01:42:13.589Z,38.56055
2023-05-08T01:42:43.589Z,38.51953
2023-05-08T01:43:13.592Z,38.76855
2023-05-08T01:43:43.588Z,39.03613
2023-05-08T01:44:13.607Z,38.61816
2023-05-08T01:44:43.584Z,38.56445
2023-05-08T01:45:13.584Z,38.69434
2023-05-08T01:45:43.586Z,38.62988
2023-05-08T01:46:13.654Z,38.84473
2023-05-08T01:46:43.629Z,38.42871
2023-05-08T01:47:13.590Z,38.82617
2023-05-08T01:47:43.615Z,38.87207
2023-05-08T01:48:13.587Z,38.20996
2023-05-08T01:48:43.587Z,38.8623
2023-05-08T01:49:13.590Z,38.35742
2023-05-08T01:49:43.592Z,38.46484
2023-05-08T01:50:13.850Z,38.33398
2023-05-08T01:50:43.627Z,38.29102
2023-05-08T01:51:13.586Z,38.56152
2023-05-08T01:51:43.590Z,38.18066
2023-05-08T01:52:13.589Z,38.65039
2023-05-08T01:52:43.595Z,39.0127
2023-05-08T01:53:13.592Z,38.88867
2023-05-08T01:53:43.593Z,38.89551
2023-05-08T01:54:13.591Z,38.73242
2023-05-08T01:54:43.592Z,38.63379
2023-05-08T01:55:13.588Z,38.32422
2023-05-08T01:55:43.590Z,38.25098
2023-05-08T01:56:13.596Z,38.40039
2023-05-08T01:56:43.586Z,38.74414
2023-05-08T01:57:13.605Z,38.43457
2023-05-08T01:57:43.602Z,38.16797
2023-05-08T01:58:13.595Z,38.74902
2023-05-08T01:58:43.586Z,38.625
2023-05-08T01:59:13.598Z,38.42383
2023-05-08T01:59:43.588Z,38.04199
2023-05-08T02:00:13.794Z,37.83789
2023-05-08T02:00:43.647Z,37.93555
2023-05-08T02:01:13.635Z,37.88477
2023-05-08T02:01:43.620Z,37.99316
2023-05-08T02:02:13.647Z,38.04492
2023-05-08T02:02:43.673Z,38.37695
2023-05-08T02:03:13.637Z,38.62012
2023-05-08T02:03:43.612Z,38.23242
2023-05-08T02:04:13.652Z,38.51367
2023-05-08T02:04:43.593Z,38.03027
2023-05-08T02:05:13.595Z,37.41113
2023-05-08T02:05:43.596Z,37.51563
2023-05-08T02:06:13.595Z,37.4248
2023-05-08T02:06:43.594Z,37.89551
2023-05-08T02:07:13.589Z,37.78711
2023-05-08T02:07:43.588Z,37.10742
2023-05-08T02:08:13.593Z,36.22266
2023-05-08T02:08:43.596Z,36.54785
2023-05-08T02:09:13.598Z,36.31836
2023-05-08T02:09:43.599Z,36.55273
2023-05-08T02:10:13.742Z,36.95898
2023-05-08T02:10:43.586Z,37.27832
2023-05-08T02:11:13.596Z,36.77539
2023-05-08T02:11:43.597Z,35.76953
2023-05-08T02:12:13.590Z,35.91406
2023-05-08T02:12:43.639Z,36.3457
2023-05-08T02:13:13.669Z,36.48633
2023-05-08T02:13:43.589Z,36.9375
2023-05-08T02:14:13.588Z,36.72461
2023-05-08T02:14:43.599Z,36.75879
2023-05-08T02:15:13.596Z,36.35059
2023-05-08T02:15:43.588Z,35.97461
2023-05-08T02:16:13.628Z,36.22754
2023-05-08T02:16:43.610Z,36.42676
2023-05-08T02:17:13.607Z,36.34473
2023-05-08T02:17:43.706Z,36.2334
2023-05-08T02:18:13.589Z,35.48828
2023-05-08T02:18:43.593Z,34.76953
2023-05-08T02:19:13.591Z,34.63379
2023-05-08T02:19:43.602Z,35.27051
2023-05-08T02:20:13.757Z,35.20508
2023-05-08T02:20:43.588Z,35.22656
2023-05-08T02:21:13.593Z,35.42969
2023-05-08T02:21:43.597Z,35.73926
2023-05-08T02:22:13.592Z,35.85938
2023-05-08T02:22:43.591Z,35.97266
2023-05-08T02:23:13.592Z,35.20605
2023-05-08T02:23:43.597Z,35.02051
2023-05-08T02:24:13.599Z,35.8584
2023-05-08T02:24:43.595Z,35.0625
2023-05-08T02:25:13.594Z,34.79395
2023-05-08T02:25:43.594Z,34.64258
2023-05-08T02:26:13.595Z,34.70215
2023-05-08T02:26:43.596Z,34.50195
2023-05-08T02:27:13.588Z,34.16016
2023-05-08T02:27:43.589Z,34.46094
2023-05-08T02:28:13.597Z,34.93359
2023-05-08T02:28:43.592Z,33.85547
2023-05-08T02:29:13.598Z,34.28125
2023-05-08T02:29:43.597Z,34.97363
2023-05-08T02:30:13.879Z,34.5625
2023-05-08T02:30:43.594Z,34.77344
2023-05-08T02:31:13.612Z,35.38281
2023-05-08T02:31:43.634Z,34.89746
2023-05-08T02:32:13.688Z,34.32422
2023-05-08T02:32:43.625Z,34.37891
2023-05-08T02:33:13.609Z,34.31445
2023-05-08T02:33:43.591Z,34.69238
2023-05-08T02:34:13.601Z,34.55176
2023-05-08T02:34:51.180Z,34.6875
2023-05-08T02:35:14.542Z,34.94531
2023-05-08T02:35:43.602Z,35.20313
2023-05-08T02:36:13.600Z,34.80176
2023-05-08T02:36:43.600Z,34.9541
2023-05-08T02:37:13.602Z,34.38574
2023-05-08T02:37:43.594Z,34.0957
2023-05-08T02:38:13.603Z,33.8252
2023-05-08T02:38:43.600Z,32.66016
2023-05-08T02:39:13.594Z,33.02051
2023-05-08T02:39:43.605Z,33.41602
2023-05-08T02:40:13.999Z,33.33203
2023-05-08T02:40:43.598Z,33.76563
2023-05-08T02:41:13.594Z,33.97168
2023-05-08T02:41:43.593Z,34.07617
2023-05-08T02:42:13.594Z,33.96582
2023-05-08T02:42:43.595Z,33.92188
2023-05-08T02:43:13.596Z,34.00293
2023-05-08T02:43:43.604Z,33.60547
2023-05-08T02:44:13.592Z,33.5127
2023-05-08T02:44:43.632Z,33.5918
2023-05-08T02:45:13.602Z,33.46582
2023-05-08T02:45:43.617Z,33.44434
2023-05-08T02:46:13.632Z,33.5459
2023-05-08T02:46:43.592Z,34.31836
2023-05-08T02:47:13.601Z,34.10059
2023-05-08T02:47:43.654Z,33.45508
2023-05-08T02:48:13.590Z,33.04297
2023-05-08T02:48:43.625Z,33.11914
2023-05-08T02:49:13.592Z,33.46582
2023-05-08T02:49:43.609Z,33.43848
2023-05-08T02:50:13.675Z,33.63574
2023-05-08T02:50:43.594Z,33.28027
2023-05-08T02:51:13.596Z,32.24023
2023-05-08T02:51:43.596Z,32.53711
2023-05-08T02:52:13.598Z,32.13867
2023-05-08T02:52:43.612Z,31.75195
2023-05-08T02:53:13.596Z,31.71289
2023-05-08T02:53:43.598Z,31.76758
2023-05-08T02:54:13.592Z,32.05078
2023-05-08T02:54:43.597Z,32.61719
2023-05-08T02:55:13.592Z,32.7168
2023-05-08T02:55:43.590Z,32.49902
2023-05-08T02:56:13.597Z,32.49316
2023-05-08T02:56:43.594Z,32.44336
2023-05-08T02:57:13.592Z,31.45117
2023-05-08T02:57:43.592Z,31.33887
2023-05-08T02:58:13.590Z,31.34277
2023-05-08T02:58:43.600Z,31.67773
2023-05-08T02:59:13.596Z,31.05859
2023-05-08T02:59:43.592Z,31.81152
2023-05-08T03:00:13.728Z,31.69727
2023-05-08T03:00:43.623Z,31.44629
2023-05-08T03:01:13.709Z,31.36816
2023-05-08T03:01:43.755Z,31.38867
2023-05-08T03:02:13.662Z,31.75781
2023-05-08T03:02:43.702Z,31.59766
2023-05-08T03:03:13.663Z,31.70801
2023-05-08T03:03:43.841Z,30.80469
2023-05-08T03:04:13.595Z,30.57715
2023-05-08T03:04:43.592Z,31.125
2023-05-08T03:05:13.599Z,30.74219
2023-05-08T03:05:43.592Z,30.19336
2023-05-08T03:06:13.600Z,30.13281
2023-05-08T03:06:43.604Z,29.97656
2023-05-08T03:07:13.603Z,30.61816
2023-05-08T03:07:43.593Z,30.70996
2023-05-08T03:08:13.601Z,30.5332
2023-05-08T03:08:43.590Z,30.82324
2023-05-08T03:09:13.603Z,30.4082
2023-05-08T03:09:43.632Z,30.06641
2023-05-08T03:10:13.923Z,29.51465
2023-05-08T03:10:43.596Z,30.19531
2023-05-08T03:11:13.592Z,30.10059
2023-05-08T03:11:43.606Z,30.57324
2023-05-08T03:12:13.591Z,30.12598
2023-05-08T03:12:43.617Z,29.72559
2023-05-08T03:13:13.637Z,29.93848
2023-05-08T03:13:43.594Z,30.5459
2023-05-08T03:14:13.593Z,30.42871
2023-05-08T03:14:43.591Z,30.25293
2023-05-08T03:15:13.590Z,29.32617
2023-05-08T03:15:43.623Z,29.17188
2023-05-08T03:16:13.628Z,29.86719
2023-05-08T03:16:43.593Z,29.87207
2023-05-08T03:17:13.594Z,29.87598
2023-05-08T03:17:43.702Z,29.43359
2023-05-08T03:18:13.593Z,30.10156
2023-05-08T03:18:43.612Z,30.16309
2023-05-08T03:19:13.598Z,29.64746
2023-05-08T03:19:43.592Z,29.64258
2023-05-08T03:20:13.955Z,30.97754
2023-05-08T03:20:43.625Z,29.89746
2023-05-08T03:21:13.609Z,30.68848
2023-05-08T03:21:43.594Z,30.23535
2023-05-08T03:22:13.601Z,29.7168
2023-05-08T03:22:43.599Z,30.51563
2023-05-08T03:23:13.600Z,29.91699
2023-05-08T03:23:43.590Z,29.82422
2023-05-08T03:24:13.599Z,29.33301
2023-05-08T03:24:43.592Z,29.53516
2023-05-08T03:25:13.597Z,28.33887
2023-05-08T03:25:43.597Z,27.46973
2023-05-08T03:26:13.599Z,28.24414
2023-05-08T03:26:43.602Z,30.37695
2023-05-08T03:27:13.621Z,31.43066
2023-05-08T03:27:43.606Z,30.41602
2023-05-08T03:28:13.595Z,28.93945
2023-05-08T03:28:43.594Z,27.63184
2023-05-08T03:29:13.593Z,26.57031
2023-05-08T03:29:43.595Z,25.14453
2023-05-08T03:30:13.938Z,23.71191
2023-05-08T03:30:43.601Z,22.25977
2023-05-08T03:31:13.625Z,20.95898
2023-05-08T03:31:43.662Z,19.87793
2023-05-08T03:32:13.592Z,17.57031
2023-05-08T03:32:43.634Z,16.75977
2023-05-08T03:33:13.592Z,15.73145
2023-05-08T03:33:43.605Z,16.58691
2023-05-08T03:34:13.596Z,17.04199
2023-05-08T03:34:43.593Z,16.86523
2023-05-08T03:35:13.599Z,15.71777
2023-05-08T03:35:43.600Z,14.22852
2023-05-08T03:36:13.600Z,14.48828
2023-05-08T03:36:43.600Z,16.31641
2023-05-08T03:37:13.602Z,16.29102
2023-05-08T03:37:43.600Z,14.5957
2023-05-08T03:38:13.595Z,14.12109
2023-05-08T03:38:43.599Z,13.07422
2023-05-08T03:39:13.606Z,12.12793
2023-05-08T03:39:43.598Z,11.33105
2023-05-08T03:40:13.811Z,10.23145
2023-05-08T03:40:43.604Z,9.788086
2023-05-08T03:41:13.600Z,10.53418
2023-05-08T03:41:43.602Z,12.48242
2023-05-08T03:42:13.596Z,12.87305
2023-05-08T03:42:43.598Z,12.33398
2023-05-08T03:43:13.599Z,11.28027
2023-05-08T03:43:43.597Z,11.68359
2023-05-08T03:44:13.610Z,11.49707
2023-05-08T03:44:43.603Z,11.23926
2023-05-08T03:45:13.594Z,10.7373
2023-05-08T03:45:43.594Z,9.608398
2023-05-08T03:46:13.615Z,10.04688
2023-05-08T03:46:43.669Z,9.31543
2023-05-08T03:47:13.598Z,7.947266
2023-05-08T03:47:44.524Z,7.981445
2023-05-08T03:48:13.638Z,9.050781
2023-05-08T03:48:43.605Z,9.008789
2023-05-08T03:49:13.596Z,8.344727
2023-05-08T03:49:43.597Z,7.384766
2023-05-08T03:50:13.866Z,7.357422
2023-05-08T03:50:43.594Z,6.839844
2023-05-08T03:51:13.610Z,7.291016
2023-05-08T03:51:43.610Z,8.735352
2023-05-08T03:52:13.605Z,9.868164
2023-05-08T03:52:43.610Z,10.26074
2023-05-08T03:53:13.600Z,8.650391
2023-05-08T03:53:43.597Z,8.990234
2023-05-08T03:54:13.599Z,8.967773
2023-05-08T03:54:43.601Z,9.139648
2023-05-08T03:55:13.610Z,9.972656
2023-05-08T03:55:43.599Z,10.9668
2023-05-08T03:56:13.605Z,11.9834
2023-05-08T03:56:43.603Z,12.96191
2023-05-08T03:57:13.606Z,11.20605
2023-05-08T03:57:43.601Z,11.54688
2023-05-08T03:58:13.603Z,12.34277
2023-05-08T03:58:43.610Z,13.05371
2023-05-08T03:59:13.608Z,13.35059
2023-05-08T03:59:43.626Z,13.25391
2023-05-08T04:00:13.784Z,11.81836
2023-05-08T04:00:43.607Z,10.1377
2023-05-08T04:01:13.623Z,9.0625
2023-05-08T04:01:43.708Z,9.55957
2023-05-08T04:02:13.643Z,9.879883
2023-05-08T04:02:43.623Z,9.761719
2023-05-08T04:03:13.686Z,9.519531
2023-05-08T04:03:43.766Z,8.421875
2023-05-08T04:04:13.767Z,7.584961
2023-05-08T04:04:43.643Z,7.5625
2023-05-08T04:05:13.611Z,8.338867
2023-05-08T04:05:43.615Z,9.19043
2023-05-08T04:06:13.610Z,10.66406
2023-05-08T04:06:49.882Z,11.64746
2023-05-08T04:07:14.665Z,10.77734
2023-05-08T04:07:43.628Z,10.2998
2023-05-08T04:08:13.612Z,9.120117
2023-05-08T04:08:43.620Z,8.787109
2023-05-08T04:09:13.611Z,9.40625
2023-05-08T04:09:43.612Z,8.630859
2023-05-08T04:10:13.924Z,8.026367
2023-05-08T04:10:43.615Z,8.201172
2023-05-08T04:11:13.611Z,9.271484
2023-05-08T04:11:43.628Z,8.976563
2023-05-08T04:12:13.617Z,9.698242
2023-05-08T04:12:43.655Z,10.1875
2023-05-08T04:13:13.675Z,10.43164
2023-05-08T04:13:43.611Z,10.77148
2023-05-08T04:14:13.611Z,12.0293
2023-05-08T04:14:43.630Z,13.22949
2023-05-08T04:15:13.791Z,14.52051
2023-05-08T04:15:43.614Z,13.5791
2023-05-08T04:16:13.661Z,13.2998
2023-05-08T04:16:43.682Z,12.44922
2023-05-08T04:17:13.619Z,12.20117
2023-05-08T04:17:43.795Z,10.64258
2023-05-08T04:18:13.613Z,9.325195
2023-05-08T04:18:43.625Z,8.423828
2023-05-08T04:19:13.616Z,7.802734
2023-05-08T04:19:43.616Z,9.697266
2023-05-08T04:20:13.614Z,10.69824
2023-05-08T04:20:44.507Z,9.857422
2023-05-08T04:21:13.621Z,9.004883
2023-05-08T04:21:43.623Z,8.674805
2023-05-08T04:22:13.627Z,9.130859
2023-05-08T04:22:43.627Z,9.648438
2023-05-08T04:23:13.626Z,9.883789
2023-05-08T04:23:43.637Z,9.068359
2023-05-08T04:24:13.617Z,8.530273
2023-05-08T04:24:43.619Z,7.883789
2023-05-08T04:25:13.890Z,7.330078
2023-05-08T04:25:43.623Z,6.681641
2023-05-08T04:26:15.874Z,6.178711
2023-05-08T04:26:44.612Z,5.994141
2023-05-08T04:27:13.637Z,6.446289
2023-05-08T04:27:43.626Z,6.519531
2023-05-08T04:28:13.628Z,7.121094
2023-05-08T04:28:43.619Z,6.445313
2023-05-08T04:29:13.620Z,7.040039
2023-05-08T04:29:43.621Z,9.438477
2023-05-08T04:30:13.644Z,8.790039
2023-05-08T04:30:43.624Z,8.223633
2023-05-08T04:31:13.618Z,8.101563
2023-05-08T04:31:43.657Z,8.181641
2023-05-08T04:32:13.739Z,7.338867
2023-05-08T04:32:46.205Z,6.772461
2023-05-08T04:33:14.710Z,6.357422
2023-05-08T04:33:43.622Z,6.019531
2023-05-08T04:34:13.623Z,8.111328
2023-05-08T04:34:43.642Z,8.771484
2023-05-08T04:35:13.939Z,8.59082
2023-05-08T04:35:43.620Z,8.958984
2023-05-08T04:36:13.626Z,8.837891
2023-05-08T04:36:43.633Z,10.60254
2023-05-08T04:37:13.636Z,11.24023
2023-05-08T04:37:43.644Z,9.813477
2023-05-08T04:38:13.622Z,9.079102
2023-05-08T04:38:43.642Z,9.972656
2023-05-08T04:39:13.626Z,10.62305
2023-05-08T04:39:43.853Z,8.694336
2023-05-08T04:40:13.647Z,8.541992
2023-05-08T04:40:43.624Z,9.311523
2023-05-08T04:41:13.696Z,9.833984
2023-05-08T04:41:43.677Z,10.05859
2023-05-08T04:42:13.631Z,8.568359
2023-05-08T04:42:43.621Z,8.751953
2023-05-08T04:43:13.627Z,9.095703
2023-05-08T04:43:43.640Z,9.18457
2023-05-08T04:44:13.625Z,9.880859
2023-05-08T04:44:43.631Z,9.461914
2023-05-08T04:45:13.846Z,7.975586
2023-05-08T04:45:43.662Z,7.9375
2023-05-08T04:46:13.693Z,8.334961
2023-05-08T04:46:43.666Z,8.654297
2023-05-08T04:47:13.628Z,8.144531
2023-05-08T04:47:43.640Z,8.274414
2023-05-08T04:48:13.628Z,7.487305
2023-05-08T04:48:43.625Z,6.914063
2023-05-08T04:49:13.627Z,6.667969
2023-05-08T04:49:43.629Z,7.257813
2023-05-08T04:50:13.646Z,6.848633
2023-05-08T04:50:43.647Z,6.624023
2023-05-08T04:51:13.629Z,7.90332
2023-05-08T04:51:43.633Z,8.768555
2023-05-08T04:52:13.636Z,9.230469
2023-05-08T04:52:43.627Z,8.460938
2023-05-08T04:53:13.625Z,8.672852
2023-05-08T04:53:43.628Z,7.888672
2023-05-08T04:54:13.628Z,7.118164
2023-05-08T04:54:43.628Z,7.361328
2023-05-08T04:55:13.889Z,8.287109
2023-05-08T04:55:43.644Z,9.799805
2023-05-08T04:56:13.632Z,11.54004
2023-05-08T04:56:43.642Z,12.44238
2023-05-08T04:57:13.628Z,14.30176
2023-05-08T04:57:43.631Z,17.44043
2023-05-08T04:58:13.632Z,17.90918
2023-05-08T04:58:43.665Z,17.69141
2023-05-08T04:59:15.870Z,19.00781
2023-05-08T04:59:43.637Z,19.00586
2023-05-08T05:00:13.633Z,19.64844
2023-05-08T05:00:43.627Z,18.8418
2023-05-08T05:01:13.645Z,19.52441
2023-05-08T05:01:43.672Z,19.01172
2023-05-08T05:02:13.629Z,19.69922
2023-05-08T05:02:43.729Z,19.25977
2023-05-08T05:03:13.788Z,18.4541
2023-05-08T05:03:43.700Z,16.66406
2023-05-08T05:04:13.713Z,15.68457
2023-05-08T05:04:43.630Z,14.69922
2023-05-08T05:05:13.871Z,16.46484
2023-05-08T05:05:43.633Z,17.31738
2023-05-08T05:06:13.640Z,18.44238
2023-05-08T05:06:43.658Z,17.17383
2023-05-08T05:07:13.640Z,17.42285
2023-05-08T05:07:43.638Z,18.98535
2023-05-08T05:08:13.626Z,17.71484
2023-05-08T05:08:43.634Z,19.83496
2023-05-08T05:09:13.628Z,17.84863
2023-05-08T05:09:43.632Z,17.53418
2023-05-08T05:10:13.637Z,17.84766
2023-05-08T05:10:43.633Z,18.50586
2023-05-08T05:11:13.631Z,19.61133
2023-05-08T05:11:43.638Z,19.37793
2023-05-08T05:12:13.633Z,17.87305
2023-05-08T05:12:43.676Z,17.89648
2023-05-08T05:13:13.684Z,17.71094
2023-05-08T05:13:43.628Z,18.29883
2023-05-08T05:14:13.630Z,17.9375
2023-05-08T05:14:43.628Z,18.65918
2023-05-08T05:15:13.829Z,18.64648
2023-05-08T05:15:43.680Z,18.99707
2023-05-08T05:16:13.649Z,20.63867
2023-05-08T05:16:43.684Z,19.81836
2023-05-08T05:17:13.641Z,19.40234
2023-05-08T05:17:43.761Z,18.49609
2023-05-08T05:18:13.690Z,19.09863
2023-05-08T05:18:43.632Z,18.35547
2023-05-08T05:19:13.628Z,18.69043
2023-05-08T05:19:43.637Z,19.86328
2023-05-08T05:20:13.674Z,18.16992
2023-05-08T05:20:43.631Z,18.97656
2023-05-08T05:21:13.630Z,17.64844
2023-05-08T05:21:43.637Z,14.70605
2023-05-08T05:22:13.652Z,13.44727
2023-05-08T05:22:43.638Z,11.94238
2023-05-08T05:23:13.632Z,10.7207
2023-05-08T05:23:43.633Z,9.323242
2023-05-08T05:24:13.635Z,8.692383
2023-05-08T05:24:43.636Z,8.458008
2023-05-08T05:25:13.882Z,7.492188
2023-05-08T05:25:43.633Z,7.359375
2023-05-08T05:26:13.637Z,8.207031
2023-05-08T05:26:43.637Z,7.669922
2023-05-08T05:27:13.666Z,8.578125
2023-05-08T05:27:43.631Z,9.693359
2023-05-08T05:28:13.631Z,9.210938
2023-05-08T05:28:43.639Z,9.325195
2023-05-08T05:29:13.651Z,8.662109
2023-05-08T05:29:43.655Z,7.786133
2023-05-08T05:30:13.915Z,7.043945
2023-05-08T05:30:43.633Z,7.667969
2023-05-08T05:31:13.710Z,6.544922
2023-05-08T05:31:43.756Z,6.463867
2023-05-08T05:32:13.634Z,6.114258
2023-05-08T05:32:43.688Z,6.333984
2023-05-08T05:33:13.652Z,6.59668
2023-05-08T05:33:43.633Z,6.530273
2023-05-08T05:34:13.635Z,5.799805
2023-05-08T05:34:43.653Z,6.625
2023-05-08T05:35:13.990Z,8.633789
2023-05-08T05:35:43.637Z,9.844727
2023-05-08T05:36:13.648Z,8.736328
2023-05-08T05:36:43.655Z,8.985352
2023-05-08T05:37:13.641Z,8.108398
2023-05-08T05:37:43.640Z,7.407227
2023-05-08T05:38:13.635Z,7.375977
2023-05-08T05:38:43.634Z,8.108398
2023-05-08T05:39:13.636Z,8.641602
2023-05-08T05:39:43.634Z,7.882813
2023-05-08T05:40:13.633Z,8.179688
2023-05-08T05:40:43.635Z,7.611328
2023-05-08T05:41:13.642Z,7.789063
2023-05-08T05:41:43.642Z,7.604492
2023-05-08T05:42:13.642Z,6.673828
2023-05-08T05:42:43.646Z,6.363281
2023-05-08T05:43:13.640Z,6.360352
2023-05-08T05:43:43.641Z,6.428711
2023-05-08T05:44:13.661Z,6.760742
2023-05-08T05:44:43.636Z,6.530273
2023-05-08T05:45:13.924Z,6.737305
2023-05-08T05:45:43.650Z,6.633789
2023-05-08T05:46:13.638Z,7.745117
2023-05-08T05:46:44.549Z,8.847656
2023-05-08T05:47:13.752Z,8.438477
2023-05-08T05:47:43.687Z,8.216797
2023-05-08T05:48:13.704Z,8.248047
2023-05-08T05:48:43.640Z,7.366211
2023-05-08T05:49:13.649Z,8.398438
2023-05-08T05:49:43.638Z,7.799805
2023-05-08T05:50:13.822Z,6.977539
2023-05-08T05:50:43.641Z,6.438477
2023-05-08T05:51:13.663Z,6.424805
2023-05-08T05:51:43.658Z,6.723633
2023-05-08T05:52:13.659Z,6.737305
2023-05-08T05:52:43.643Z,6.734375
2023-05-08T05:53:13.647Z,7.800781
2023-05-08T05:53:43.645Z,7.69043